Nearby METAR Reports

 

TNCA - Queen Beatrix, Lesser Antilles
Distance from station: 0 0km
Updated: 22/09/2018 15:00
Few Clouds
Few Clouds
 Wind from E
Wind: E 35 km/h
Temperature: 33°C
Heat Index: 37°C
Dew Point: 22°C
Humidity: 52%
Barometer: 1008 hPa
Clouds: Few Clouds
Visibility: 10 km
Cloud details: Few Clouds 762 m
2018/09/22 19:00 TNCA 221900Z 09019KT 9999 FEW025 33/22 Q1008 NOSIG
SVJC - Paraguana/Josefa, Venezuela
Distance from station: S 83km
Updated: 23/06/2018 06:00
NOT Current

 
2018/06/23 10:00 SVJC 231000Z NI
 
TNCC - Hato Air Curacao, Lesser Antilles
Distance from station: ESE 117km
Updated: 22/09/2018 14:00
Few Clouds
Few Clouds
 Wind from E
Wind: E 20 km/h
Temperature: 32°C
Heat Index: 38°C
Dew Point: 24°C
Humidity: 63%
Barometer: 1009 hPa
Clouds: Few Clouds
Visibility: 10 km
Cloud details: Few Clouds 610 m
2018/09/22 18:00 TNCC 221800Z 08011KT 060V120 9999 FEW020 32/24 Q1009 NOSIG
SVCR - Coro/Jose Leonar, Venezuela
Distance from station: SSE 126km
Updated: 22/09/2018 14:00
Few Clouds
Few Clouds
 Wind from varies
Wind: varies 0 km/h
Temperature: 35°C
Heat Index: 39°C
Dew Point: 22°C
Humidity: 47%
Barometer: 1009 hPa
Clouds: Few Clouds
Visibility: 10 km
Cloud details: Few Clouds 488 m
2018/09/22 18:00 SVCR 221800Z /////KT 9999 FEW016 35/22 Q1009
 
TNCB - Bonaire/Flamingo, Lesser Antilles
Distance from station: ESE 191km
Updated: 22/09/2018 13:55
Overcast
Overcast
 Wind from E
Wind: E 28 km/h
Temperature: 31°C
Heat Index: 36°C
Dew Point: 23°C
Humidity: 62%
Barometer: 1009 hPa
Clouds: Overcast
Visibility: 10 km
Cloud details: Mostly Cloudy 671 m
Overcast 762 m
2018/09/22 17:55 TNCB 221755Z AUTO 08015KT 050V120 9999 BKN022/// OVC025/// 31/23 Q1009
SVMC - Maracaibo/La Chi, Venezuela
Distance from station: SW 285km
Updated: 19/09/2018 19:00
NOT Current
Mostly Cloudy
Mostly Cloudy
 Wind from NE
Wind: NE 6 km/h
Temperature: 31°C
Heat Index: 39°C
Dew Point: 26°C
Humidity: 75%
Barometer: 1008 hPa
Clouds: Mostly Cloudy
Visibility: 10 km
Cloud details: Mostly Cloudy 396 m
2018/09/19 23:00 SVMC 192300Z 05003KT 9999 BKN013 31/26 Q1008